createdAt,value
2019-03-24T00:01:22.458Z,36.37
2019-03-24T00:03:55.688Z,35.73
2019-03-24T00:06:28.882Z,32.70
2019-03-24T00:09:02.112Z,33.10
2019-03-24T00:11:35.318Z,33.50
2019-03-24T00:14:07.969Z,34.77
2019-03-24T00:16:40.598Z,34.10
2019-03-24T00:19:13.252Z,33.00
2019-03-24T00:21:46.483Z,33.87
2019-03-24T00:24:19.679Z,32.07
2019-03-24T00:26:52.856Z,33.03
2019-03-24T00:29:26.389Z,32.43
2019-03-24T00:31:59.571Z,31.03
2019-03-24T00:34:32.799Z,31.77
2019-03-24T00:37:06.006Z,32.20
2019-03-24T00:39:38.679Z,31.17
2019-03-24T00:42:11.334Z,31.97
2019-03-24T00:44:44.039Z,31.43
2019-03-24T00:47:16.721Z,30.80
2019-03-24T00:49:49.530Z,29.83
2019-03-24T00:52:22.187Z,30.37
2019-03-24T00:54:54.879Z,30.43
2019-03-24T00:57:27.538Z,30.27
2019-03-24T01:00:00.441Z,29.63
2019-03-24T01:02:33.146Z,29.20
2019-03-24T01:05:05.959Z,30.03
2019-03-24T01:07:38.627Z,25.63
2019-03-24T01:10:11.319Z,24.53
2019-03-24T01:12:43.962Z,23.20
2019-03-24T01:15:16.640Z,20.70
2019-03-24T01:17:49.303Z,20.97
2019-03-24T01:20:21.991Z,21.07
2019-03-24T01:22:55.279Z,19.23
2019-03-24T01:25:28.515Z,20.03
2019-03-24T01:28:01.747Z,19.00
2019-03-24T01:30:34.980Z,18.20
2019-03-24T01:33:08.206Z,18.80
2019-03-24T01:35:41.407Z,18.23
2019-03-24T01:38:14.609Z,19.30
2019-03-24T01:40:47.849Z,18.50
2019-03-24T01:43:21.087Z,18.37
2019-03-24T01:45:58.510Z,18.77
2019-03-24T01:48:29.404Z,18.77
2019-03-24T01:51:02.626Z,18.70
2019-03-24T01:53:35.819Z,17.47
2019-03-24T01:56:09.052Z,18.00
2019-03-24T01:58:42.275Z,18.27
2019-03-24T02:01:15.516Z,18.67
2019-03-24T02:03:48.716Z,17.67
2019-03-24T02:06:21.938Z,17.67
2019-03-24T02:08:55.150Z,16.93
2019-03-24T02:11:28.398Z,16.43
2019-03-24T02:14:01.635Z,15.73
2019-03-24T02:16:34.843Z,16.43
2019-03-24T02:19:08.051Z,16.10
2019-03-24T02:21:40.731Z,16.57
2019-03-24T02:24:13.420Z,16.13
2019-03-24T02:26:46.748Z,16.30
2019-03-24T02:29:19.981Z,15.33
2019-03-24T02:31:53.228Z,15.57
2019-03-24T02:34:26.460Z,15.07
2019-03-24T02:36:59.707Z,15.40
2019-03-24T02:39:33.747Z,15.37
2019-03-24T02:42:06.972Z,14.50
2019-03-24T02:44:40.204Z,14.00
2019-03-24T02:47:13.463Z,14.80
2019-03-24T02:49:46.724Z,14.07
2019-03-24T02:52:19.957Z,13.47
2019-03-24T02:54:53.192Z,14.47
2019-03-24T02:57:26.431Z,14.03
2019-03-24T02:59:59.631Z,14.17
2019-03-24T03:02:32.867Z,15.97
2019-03-24T03:05:06.192Z,16.13
2019-03-24T03:07:39.550Z,13.87
2019-03-24T03:10:12.882Z,14.57
2019-03-24T03:12:47.723Z,15.43
2019-03-24T03:15:21.216Z,15.43
2019-03-24T03:17:54.453Z,15.90
2019-03-24T03:20:27.809Z,15.60
2019-03-24T03:23:01.410Z,16.07
2019-03-24T03:25:34.598Z,17.20
2019-03-24T03:28:07.809Z,16.30
2019-03-24T03:30:42.256Z,15.83
2019-03-24T03:33:15.516Z,16.80
2019-03-24T03:35:48.743Z,17.00
2019-03-24T03:38:22.024Z,18.03
2019-03-24T03:40:55.281Z,18.23
2019-03-24T03:43:28.549Z,16.73
2019-03-24T03:46:01.755Z,16.53
2019-03-24T03:48:35.012Z,16.20
2019-03-24T03:51:08.217Z,16.67
2019-03-24T03:53:41.452Z,16.63
2019-03-24T03:56:14.668Z,16.87
2019-03-24T03:58:47.919Z,16.93
2019-03-24T04:01:21.125Z,16.77
2019-03-24T04:03:54.452Z,17.13
2019-03-24T04:06:27.687Z,18.07
2019-03-24T04:09:00.896Z,18.50
2019-03-24T04:11:34.083Z,19.03
2019-03-24T04:14:07.335Z,19.50
2019-03-24T04:16:41.747Z,18.50
2019-03-24T04:19:15.287Z,19.43
2019-03-24T04:21:48.522Z,20.60
2019-03-24T04:24:21.771Z,20.03
2019-03-24T04:26:54.978Z,20.83
2019-03-24T04:29:28.216Z,21.10
2019-03-24T04:32:01.431Z,21.10
2019-03-24T04:34:34.828Z,21.27
2019-03-24T04:37:08.027Z,20.80
2019-03-24T04:39:41.288Z,21.10
2019-03-24T04:42:14.496Z,21.90
2019-03-24T04:44:47.730Z,21.83
2019-03-24T04:47:20.958Z,21.77
2019-03-24T04:49:54.203Z,22.00
2019-03-24T04:52:27.403Z,22.80
2019-03-24T04:55:00.630Z,21.80
2019-03-24T04:57:33.848Z,22.67
2019-03-24T05:00:07.117Z,21.80
2019-03-24T05:02:40.330Z,23.03
2019-03-24T05:05:13.546Z,22.33
2019-03-24T05:07:46.758Z,21.80
2019-03-24T05:10:25.575Z,24.40
2019-03-24T05:12:58.779Z,22.37
2019-03-24T05:15:32.312Z,23.80
2019-03-24T05:18:05.547Z,22.80
2019-03-24T05:20:38.884Z,23.73
2019-03-24T05:23:12.099Z,24.20
2019-03-24T05:25:45.384Z,22.93
2019-03-24T05:28:18.603Z,24.67
2019-03-24T05:30:51.818Z,24.67
2019-03-24T05:33:25.032Z,25.87
2019-03-24T05:35:58.262Z,25.13
2019-03-24T05:38:31.499Z,25.10
2019-03-24T05:41:04.796Z,25.90
2019-03-24T05:43:38.080Z,26.13
2019-03-24T05:46:11.292Z,26.70
2019-03-24T05:48:44.495Z,27.60
2019-03-24T05:51:17.742Z,26.57
2019-03-24T05:53:50.938Z,26.43
2019-03-24T05:56:24.172Z,27.33
2019-03-24T05:58:57.393Z,26.77
2019-03-24T06:01:30.631Z,25.60
2019-03-24T06:04:03.854Z,26.67
2019-03-24T06:06:37.072Z,27.13
2019-03-24T06:09:10.289Z,28.80
2019-03-24T06:11:43.788Z,26.83
2019-03-24T06:14:17.068Z,27.97
2019-03-24T06:16:50.260Z,29.27
2019-03-24T06:19:23.542Z,28.40
2019-03-24T06:21:56.756Z,28.57
2019-03-24T06:24:29.963Z,27.70
2019-03-24T06:27:03.166Z,29.37
2019-03-24T06:29:37.423Z,28.17
2019-03-24T06:32:10.635Z,27.17
2019-03-24T06:34:43.867Z,27.70
2019-03-24T06:37:17.075Z,28.87
2019-03-24T06:39:50.267Z,28.77
2019-03-24T06:42:23.478Z,30.47
2019-03-24T06:44:56.691Z,28.50
2019-03-24T06:47:29.899Z,30.27
2019-03-24T06:50:03.931Z,29.23
2019-03-24T06:52:38.248Z,29.73
2019-03-24T06:55:11.425Z,30.80
2019-03-24T06:57:44.629Z,31.23
2019-03-24T07:00:20.210Z,30.03
2019-03-24T07:02:53.417Z,31.33
2019-03-24T07:05:26.627Z,31.60
2019-03-24T07:07:59.823Z,30.13
2019-03-24T07:10:33.020Z,26.90
2019-03-24T07:13:06.257Z,28.97
2019-03-24T07:15:39.431Z,29.30
2019-03-24T07:18:12.636Z,26.80
2019-03-24T07:20:45.838Z,26.60
2019-03-24T07:23:19.006Z,25.60
2019-03-24T07:25:52.195Z,27.07
2019-03-24T07:28:25.410Z,26.60
2019-03-24T07:30:58.652Z,23.90
2019-03-24T07:33:31.868Z,24.73
2019-03-24T07:36:05.050Z,25.60
2019-03-24T07:38:38.246Z,25.93
2019-03-24T07:41:11.429Z,23.37
2019-03-24T07:43:44.644Z,21.87
2019-03-24T07:46:17.820Z,23.67
2019-03-24T07:48:51.219Z,23.37
2019-03-24T07:51:24.397Z,22.37
2019-03-24T07:53:57.086Z,22.63
2019-03-24T07:56:30.352Z,21.30
2019-03-24T07:59:03.544Z,21.83
2019-03-24T08:01:36.831Z,20.93
2019-03-24T08:04:10.022Z,22.03
2019-03-24T08:06:45.575Z,22.47
2019-03-24T08:09:18.777Z,21.67
2019-03-24T08:11:54.327Z,20.20
2019-03-24T08:14:28.775Z,21.50
2019-03-24T08:17:01.950Z,21.93
2019-03-24T08:19:35.177Z,20.30
2019-03-24T08:22:08.372Z,20.90
2019-03-24T08:24:41.579Z,20.67
2019-03-24T08:27:16.119Z,19.80
2019-03-24T08:29:49.383Z,21.70
2019-03-24T08:32:22.576Z,19.63
2019-03-24T08:34:56.063Z,19.40
2019-03-24T08:37:29.234Z,19.73
2019-03-24T08:40:02.477Z,20.43
2019-03-24T08:42:35.667Z,20.33
2019-03-24T08:45:12.805Z,18.90
2019-03-24T08:47:46.051Z,18.40
2019-03-24T08:50:19.306Z,19.03
2019-03-24T08:52:52.498Z,20.40
2019-03-24T08:55:25.695Z,18.43
2019-03-24T08:57:58.892Z,19.57
2019-03-24T09:00:32.089Z,20.27
2019-03-24T09:03:05.283Z,18.37
2019-03-24T09:05:38.488Z,18.30
2019-03-24T09:08:11.703Z,17.93
2019-03-24T09:10:44.901Z,18.47
2019-03-24T09:13:18.178Z,19.47
2019-03-24T09:15:51.393Z,19.60
2019-03-24T09:18:24.599Z,18.77
2019-03-24T09:20:58.007Z,18.37
2019-03-24T09:23:31.208Z,18.80
2019-03-24T09:26:04.487Z,16.80
2019-03-24T09:28:37.667Z,23.17
2019-03-24T09:31:10.891Z,21.93
2019-03-24T09:33:44.089Z,20.87
2019-03-24T09:36:17.310Z,20.20
2019-03-24T09:38:50.493Z,20.30
2019-03-24T09:41:23.743Z,19.33
2019-03-24T09:43:56.926Z,18.13
2019-03-24T09:46:30.162Z,20.20
2019-03-24T09:49:03.591Z,18.10
2019-03-24T09:51:36.835Z,17.80
2019-03-24T09:54:11.119Z,18.67
2019-03-24T09:56:44.311Z,17.80
2019-03-24T09:59:17.549Z,17.10
2019-03-24T10:01:50.807Z,15.00
2019-03-24T10:04:23.999Z,15.63
2019-03-24T10:06:57.191Z,14.40
2019-03-24T10:09:30.375Z,15.23
2019-03-24T10:12:03.600Z,15.67
2019-03-24T10:14:36.807Z,15.33
2019-03-24T10:17:09.982Z,14.00
2019-03-24T10:19:44.679Z,13.63
2019-03-24T10:22:17.923Z,13.50
2019-03-24T10:24:51.135Z,13.27
2019-03-24T10:27:24.443Z,11.93
2019-03-24T10:29:57.629Z,12.40
2019-03-24T10:32:32.704Z,11.60
2019-03-24T10:35:06.085Z,11.67
2019-03-24T10:37:39.274Z,11.40
2019-03-24T10:40:12.468Z,11.87
2019-03-24T10:42:45.690Z,11.77
2019-03-24T10:45:18.866Z,12.93
2019-03-24T10:47:52.073Z,12.30
2019-03-24T10:50:25.255Z,11.77
2019-03-24T10:52:58.454Z,11.73
2019-03-24T10:55:31.638Z,10.77
2019-03-24T10:58:04.839Z,11.20
2019-03-24T11:00:39.504Z,11.73
2019-03-24T11:03:12.701Z,11.57
2019-03-24T11:05:45.878Z,11.80
2019-03-24T11:10:45.066Z,11.07
2019-03-24T11:13:19.086Z,11.27
2019-03-24T11:15:52.292Z,10.90
2019-03-24T11:18:25.495Z,11.37
2019-03-24T11:20:58.672Z,10.87
2019-03-24T11:23:31.933Z,10.70
2019-03-24T11:26:05.118Z,10.87
2019-03-24T11:28:38.320Z,10.60
2019-03-24T11:31:11.514Z,10.50
2019-03-24T11:33:44.791Z,9.90
2019-03-24T11:36:18.016Z,9.87
2019-03-24T11:38:51.205Z,10.37
2019-03-24T11:41:24.415Z,10.77
2019-03-24T11:43:57.611Z,8.30
2019-03-24T11:46:30.789Z,8.70
2019-03-24T11:49:03.987Z,6.77
2019-03-24T11:51:37.175Z,5.90
2019-03-24T11:54:10.715Z,6.50
2019-03-24T11:56:43.897Z,6.93
2019-03-24T11:59:17.104Z,6.77
2019-03-24T12:01:50.347Z,7.87
2019-03-24T12:04:23.598Z,9.33
2019-03-24T12:06:57.868Z,9.50
2019-03-24T12:09:31.095Z,10.80
2019-03-24T12:12:04.279Z,10.07
2019-03-24T12:14:37.478Z,10.60
2019-03-24T12:17:10.681Z,13.07
2019-03-24T12:19:43.924Z,13.87
2019-03-24T12:22:17.131Z,13.80
2019-03-24T12:24:50.371Z,13.27
2019-03-24T12:27:23.563Z,13.90
2019-03-24T12:29:56.758Z,12.17
2019-03-24T12:32:29.938Z,10.30
2019-03-24T12:35:03.446Z,9.83
2019-03-24T12:37:36.624Z,8.47
2019-03-24T12:40:10.976Z,9.50
2019-03-24T12:42:45.308Z,8.47
2019-03-24T12:45:18.516Z,6.73
2019-03-24T12:47:51.700Z,6.90
2019-03-24T12:50:31.509Z,5.70
2019-03-24T12:53:01.100Z,6.13
2019-03-24T12:55:34.304Z,6.60
2019-03-24T12:58:07.515Z,6.63
2019-03-24T13:00:40.724Z,6.20
2019-03-24T13:03:13.921Z,5.93
2019-03-24T13:05:47.126Z,6.43
2019-03-24T13:08:20.310Z,5.80
2019-03-24T13:10:53.499Z,5.47
2019-03-24T13:13:28.741Z,5.30
2019-03-24T13:16:02.030Z,5.53
2019-03-24T13:18:35.411Z,4.50
2019-03-24T13:21:08.608Z,3.80
2019-03-24T13:23:41.776Z,4.17
2019-03-24T13:26:14.976Z,3.93
2019-03-24T13:28:48.171Z,3.50
2019-03-24T13:31:21.355Z,3.70
2019-03-24T13:33:54.549Z,3.60
2019-03-24T13:36:27.736Z,3.90
2019-03-24T13:39:00.919Z,3.80
2019-03-24T13:41:34.116Z,4.10
2019-03-24T13:44:07.390Z,3.30
2019-03-24T13:46:40.587Z,3.27
2019-03-24T13:49:13.784Z,3.33
2019-03-24T13:51:47.024Z,3.27
2019-03-24T13:54:20.203Z,3.53
2019-03-24T13:56:53.444Z,2.80
2019-03-24T13:59:26.684Z,2.80
2019-03-24T14:01:59.886Z,2.97
2019-03-24T14:04:33.071Z,3.13
2019-03-24T14:07:06.268Z,3.60
2019-03-24T14:09:39.456Z,3.00
2019-03-24T14:12:12.691Z,3.30
2019-03-24T14:14:45.863Z,2.93
2019-03-24T14:17:19.059Z,3.30
2019-03-24T14:19:52.259Z,2.90
2019-03-24T14:22:25.508Z,2.90
2019-03-24T14:24:58.699Z,2.77
2019-03-24T14:27:31.908Z,3.10
2019-03-24T14:30:05.647Z,3.60
2019-03-24T14:32:38.875Z,3.00
2019-03-24T14:35:12.079Z,3.13
2019-03-24T14:37:45.343Z,2.93
2019-03-24T14:40:18.543Z,3.00
2019-03-24T14:42:51.752Z,2.70
2019-03-24T14:45:25.007Z,3.27
2019-03-24T14:47:58.298Z,3.20
2019-03-24T14:50:31.467Z,3.27
2019-03-24T14:53:04.661Z,3.17
2019-03-24T14:55:38.267Z,2.77
2019-03-24T14:58:11.476Z,3.07
2019-03-24T15:00:44.646Z,3.10
2019-03-24T15:03:17.851Z,2.83
2019-03-24T15:05:51.068Z,2.97
2019-03-24T15:08:24.291Z,3.10
2019-03-24T15:10:57.480Z,2.90
2019-03-24T15:13:30.673Z,2.70
2019-03-24T15:16:03.859Z,2.90
2019-03-24T15:18:37.163Z,2.67
2019-03-24T15:21:11.555Z,2.20
2019-03-24T15:23:44.868Z,2.70
2019-03-24T15:26:18.087Z,3.40
2019-03-24T15:28:51.400Z,2.53
2019-03-24T15:31:24.586Z,2.50
2019-03-24T15:33:57.850Z,2.33
2019-03-24T15:36:31.027Z,2.13
2019-03-24T15:39:07.027Z,2.27
2019-03-24T15:41:40.223Z,2.50
2019-03-24T15:44:13.422Z,2.27
2019-03-24T15:46:46.606Z,2.00
2019-03-24T15:49:19.812Z,2.07
2019-03-24T15:51:53.005Z,1.93
2019-03-24T15:54:26.304Z,2.27
2019-03-24T15:56:59.483Z,2.50
2019-03-24T15:59:32.686Z,2.00
2019-03-24T16:02:05.898Z,2.03
2019-03-24T16:04:39.114Z,1.80
2019-03-24T16:07:12.352Z,1.87
2019-03-24T16:09:45.553Z,2.10
2019-03-24T16:12:18.796Z,1.93
2019-03-24T16:14:51.999Z,2.03
2019-03-24T16:17:25.187Z,2.07
2019-03-24T16:19:58.412Z,1.87
2019-03-24T16:22:31.597Z,2.13
2019-03-24T16:25:05.322Z,2.17
2019-03-24T16:27:38.584Z,2.57
2019-03-24T16:30:13.451Z,1.97
2019-03-24T16:32:46.667Z,2.37
2019-03-24T16:35:19.862Z,2.37
2019-03-24T16:37:53.051Z,2.70
2019-03-24T16:40:26.271Z,2.27
2019-03-24T16:42:59.446Z,2.40
2019-03-24T16:45:32.648Z,2.70
2019-03-24T16:48:05.990Z,2.53
2019-03-24T16:50:39.219Z,1.97
2019-03-24T16:53:12.444Z,2.63
2019-03-24T16:55:45.648Z,2.33
2019-03-24T16:58:18.977Z,2.33
2019-03-24T17:00:52.218Z,2.87
2019-03-24T17:03:25.521Z,2.30
2019-03-24T17:05:58.747Z,2.43
2019-03-24T17:08:31.932Z,1.70
2019-03-24T17:11:05.138Z,2.23
2019-03-24T17:13:38.525Z,2.37
2019-03-24T17:16:11.812Z,2.53
2019-03-24T17:18:45.001Z,2.07
2019-03-24T17:21:19.498Z,2.10
2019-03-24T17:23:52.721Z,1.80
2019-03-24T17:26:26.179Z,2.13
2019-03-24T17:28:59.355Z,2.10
2019-03-24T17:31:32.577Z,2.10
2019-03-24T17:34:05.867Z,2.00
2019-03-24T17:36:39.073Z,2.03
2019-03-24T17:39:12.266Z,2.13
2019-03-24T17:41:45.475Z,2.10
2019-03-24T17:44:18.689Z,2.30
2019-03-24T17:46:52.189Z,2.90
2019-03-24T17:49:25.372Z,2.00
2019-03-24T17:52:00.940Z,2.53
2019-03-24T17:54:33.516Z,2.30
2019-03-24T17:57:06.742Z,3.07
2019-03-24T17:59:39.929Z,2.90
2019-03-24T18:02:14.452Z,2.43
2019-03-24T18:04:47.998Z,2.83
2019-03-24T18:07:21.232Z,3.00
2019-03-24T18:09:54.401Z,2.57
2019-03-24T18:12:27.599Z,2.87
2019-03-24T18:15:00.815Z,3.07
2019-03-24T18:17:34.026Z,3.20
2019-03-24T18:20:08.207Z,3.07
2019-03-24T18:22:41.480Z,3.23
2019-03-24T18:25:14.732Z,2.80
2019-03-24T18:27:47.924Z,2.97
2019-03-24T18:30:21.147Z,3.03
2019-03-24T18:32:54.424Z,2.70
2019-03-24T18:35:27.614Z,2.80
2019-03-24T18:38:00.814Z,2.57
2019-03-24T18:40:33.995Z,2.97
2019-03-24T18:43:07.177Z,3.47
2019-03-24T18:45:40.354Z,2.67
2019-03-24T18:48:13.577Z,3.10
2019-03-24T18:50:46.750Z,3.77
2019-03-24T18:53:19.975Z,3.50
2019-03-24T18:55:53.294Z,3.97
2019-03-24T18:58:26.515Z,3.57
2019-03-24T19:00:59.706Z,4.67
2019-03-24T19:03:32.991Z,3.27
2019-03-24T19:06:06.170Z,3.90
2019-03-24T19:08:39.367Z,4.30
2019-03-24T19:11:12.546Z,3.80
2019-03-24T19:13:45.779Z,4.20
2019-03-24T19:16:18.960Z,4.73
2019-03-24T19:18:52.147Z,3.60
2019-03-24T19:21:25.343Z,3.80
2019-03-24T19:23:58.582Z,4.00
2019-03-24T19:26:31.795Z,3.73
2019-03-24T19:29:05.040Z,3.93
2019-03-24T19:31:38.246Z,4.40
2019-03-24T19:34:11.471Z,4.47
2019-03-24T19:36:44.678Z,4.23
2019-03-24T19:39:19.404Z,3.67
2019-03-24T19:41:52.624Z,4.40
2019-03-24T19:44:25.829Z,3.70
2019-03-24T19:46:59.032Z,4.17
2019-03-24T19:49:32.250Z,3.47
2019-03-24T19:52:05.411Z,3.03
2019-03-24T19:54:38.652Z,4.27
2019-03-24T19:57:11.943Z,3.83
2019-03-24T19:59:45.160Z,3.87
2019-03-24T20:02:18.366Z,3.70
2019-03-24T20:04:51.561Z,3.90
2019-03-24T20:07:24.743Z,4.07
2019-03-24T20:09:57.957Z,4.07
2019-03-24T20:12:32.789Z,3.57
2019-03-24T20:15:06.159Z,3.43
2019-03-24T20:17:39.364Z,3.67
2019-03-24T20:20:12.576Z,3.27
2019-03-24T20:22:55.981Z,3.50
2019-03-24T20:25:20.715Z,3.93
2019-03-24T20:27:53.907Z,3.83
2019-03-24T20:30:27.132Z,3.70
2019-03-24T20:33:00.331Z,3.70
2019-03-24T20:35:33.533Z,3.50
2019-03-24T20:38:06.711Z,4.10
2019-03-24T20:40:39.955Z,3.73
2019-03-24T20:43:13.151Z,3.73
2019-03-24T20:45:46.421Z,3.90
2019-03-24T20:48:19.687Z,3.93
2019-03-24T20:50:52.893Z,3.60
2019-03-24T20:53:26.097Z,4.20
2019-03-24T20:55:59.350Z,3.60
2019-03-24T20:58:32.619Z,3.50
2019-03-24T21:01:05.871Z,3.50
2019-03-24T21:03:39.050Z,3.33
2019-03-24T21:06:12.255Z,4.00
2019-03-24T21:08:45.430Z,3.50
2019-03-24T21:11:18.651Z,3.53
2019-03-24T21:13:51.852Z,3.47
2019-03-24T21:16:25.508Z,4.33
2019-03-24T21:18:58.883Z,3.37
2019-03-24T21:21:32.112Z,4.70
2019-03-24T21:24:05.307Z,4.27
2019-03-24T21:26:38.538Z,3.90
2019-03-24T21:29:11.724Z,3.40
2019-03-24T21:31:44.921Z,4.07
2019-03-24T21:34:18.476Z,3.80
2019-03-24T21:36:51.713Z,3.90
2019-03-24T21:39:24.909Z,4.00
2019-03-24T21:41:58.177Z,3.90
2019-03-24T21:44:31.373Z,4.50
2019-03-24T21:47:04.566Z,3.50
2019-03-24T21:49:37.820Z,4.07
2019-03-24T21:52:10.510Z,4.23
2019-03-24T21:54:43.763Z,4.17
2019-03-24T21:57:17.003Z,3.73
2019-03-24T21:59:50.247Z,4.43
2019-03-24T22:02:23.554Z,3.70
2019-03-24T22:04:56.763Z,4.00
2019-03-24T22:07:29.974Z,4.33
2019-03-24T22:10:03.322Z,3.50
2019-03-24T22:12:36.537Z,4.57
2019-03-24T22:15:09.782Z,3.90
2019-03-24T22:17:42.986Z,4.03
2019-03-24T22:20:16.171Z,3.70
2019-03-24T22:22:49.382Z,3.43
2019-03-24T22:25:22.595Z,4.40
2019-03-24T22:27:56.067Z,4.10
2019-03-24T22:30:29.519Z,4.83
2019-03-24T22:33:02.748Z,4.47
2019-03-24T22:35:35.991Z,4.00
2019-03-24T22:38:09.346Z,3.97
2019-03-24T22:40:42.543Z,4.23
2019-03-24T22:43:15.767Z,4.00
2019-03-24T22:45:48.957Z,4.13
2019-03-24T22:48:23.406Z,4.30
2019-03-24T22:50:56.631Z,4.70
2019-03-24T22:53:29.867Z,4.40
2019-03-24T22:56:03.055Z,4.83
2019-03-24T22:58:36.251Z,4.30
2019-03-24T23:01:09.462Z,4.70
2019-03-24T23:03:42.654Z,5.10
2019-03-24T23:06:15.860Z,5.07
2019-03-24T23:08:49.052Z,5.03
2019-03-24T23:11:22.222Z,5.40
2019-03-24T23:13:55.421Z,5.67
2019-03-24T23:16:28.713Z,6.13
2019-03-24T23:19:01.899Z,5.63
2019-03-24T23:21:35.119Z,6.00
2019-03-24T23:24:15.290Z,5.77
2019-03-24T23:26:43.243Z,6.33
2019-03-24T23:29:16.434Z,5.37
2019-03-24T23:31:49.605Z,5.70
2019-03-24T23:34:22.827Z,5.93
2019-03-24T23:36:56.011Z,5.90
2019-03-24T23:39:29.549Z,5.67
2019-03-24T23:42:02.803Z,4.87
2019-03-24T23:44:36.003Z,5.20
2019-03-24T23:47:09.192Z,5.27
2019-03-24T23:49:42.405Z,4.60
2019-03-24T23:52:15.595Z,5.30
2019-03-24T23:54:48.798Z,5.70
2019-03-24T23:57:21.990Z,5.67
2019-03-24T23:59:55.215Z,4.87
